Port Wash, New York
Current Conditions -  °F | °C
As of 9:51 AM on Saturday 20 Dec 2014 (Local Time) from KLGA Reporting Station
Overcast Overcast  
Wind Chill: 24°   Ceiling: 2600
Heat Index: 31°   Visibility: 10mi
Dew Point: 20°   Wind: 7mph
Humidity: 64%   Direction: 340°NNW
Pressure: 30.31"   Gusts: NA
Location:  40.8387°N, 73.6912°W
Report Text: KLGA 201451Z 34006KT 10SM OVC026 M01/M07 A3031 RMK AO2 SLP263 T10061067 53012
Loading
Personal Weather Stations






























Interactive Weather Map New forecast layout! Learn more

10-Day Weather Forecast

Advertisements
Track Severe Weather on mobile